createdAt,value
2023-01-30T00:01:29.884Z,-0.80
2023-01-30T00:03:58.940Z,-0.83
2023-01-30T00:06:27.396Z,-0.86
2023-01-30T00:08:55.772Z,-0.89
2023-01-30T00:11:24.713Z,-0.93
2023-01-30T00:13:53.130Z,-0.96
2023-01-30T00:16:21.545Z,-0.99
2023-01-30T00:18:50.658Z,-1.00
2023-01-30T00:21:19.334Z,-1.01
2023-01-30T00:23:47.740Z,-1.01
2023-01-30T00:26:16.241Z,-1.02
2023-01-30T00:28:44.660Z,-1.04
2023-01-30T00:31:13.082Z,-1.04
2023-01-30T00:33:41.500Z,-1.07
2023-01-30T00:36:10.801Z,-1.08
2023-01-30T00:38:39.260Z,-1.12
2023-01-30T00:41:07.913Z,-1.15
2023-01-30T00:43:54.911Z,-1.17
2023-01-30T00:46:49.875Z,-1.20
2023-01-30T00:49:18.514Z,-1.24
2023-01-30T00:51:47.238Z,-1.28
2023-01-30T00:54:15.612Z,-1.31
2023-01-30T00:56:43.972Z,-1.36
2023-01-30T00:59:12.340Z,-1.40
2023-01-30T01:01:41.015Z,-1.41
2023-01-30T01:04:10.566Z,-1.44
2023-01-30T01:06:39.515Z,-1.47
2023-01-30T01:09:07.955Z,-1.49
2023-01-30T01:11:36.718Z,-1.50
2023-01-30T01:14:06.245Z,-1.51
2023-01-30T01:16:36.069Z,-1.52
2023-01-30T01:19:05.062Z,-1.53
2023-01-30T01:21:33.431Z,-1.55
2023-01-30T01:24:01.904Z,-1.58
2023-01-30T01:26:30.342Z,-1.61
2023-01-30T01:28:59.542Z,-1.63
2023-01-30T01:31:28.103Z,-1.64
2023-01-30T01:33:57.220Z,-1.65
2023-01-30T01:36:51.666Z,-1.66
2023-01-30T01:39:14.061Z,-1.67
2023-01-30T01:41:42.406Z,-1.66
2023-01-30T01:44:13.591Z,-1.66
2023-01-30T01:46:52.527Z,-1.65
2023-01-30T01:49:26.008Z,-1.64
2023-01-30T01:52:17.023Z,-1.62
2023-01-30T01:54:59.249Z,-1.59
2023-01-30T01:57:32.723Z,-1.56
2023-01-30T02:00:15.837Z,-1.54
2023-01-30T02:02:54.201Z,-1.52
2023-01-30T02:05:25.770Z,-1.49
2023-01-30T02:08:22.430Z,-1.45
2023-01-30T02:11:06.499Z,-1.41
2023-01-30T02:13:35.196Z,-1.36
2023-01-30T02:16:06.248Z,-1.31
2023-01-30T02:18:38.162Z,-1.26
2023-01-30T02:21:31.562Z,-1.22
2023-01-30T02:24:24.585Z,-1.16
2023-01-30T02:27:22.985Z,-1.11
2023-01-30T02:30:18.875Z,-1.06
2023-01-30T02:33:18.592Z,-1.01
2023-01-30T02:35:50.063Z,-0.97
2023-01-30T02:38:43.357Z,-0.95
2023-01-30T02:41:53.984Z,-0.92
2023-01-30T02:44:37.509Z,-0.88
2023-01-30T02:47:20.168Z,-0.84
2023-01-30T02:50:00.956Z,-0.82
2023-01-30T02:52:30.695Z,-0.80
2023-01-30T02:54:59.019Z,-0.78
2023-01-30T02:57:27.754Z,-0.78
2023-01-30T03:00:02.374Z,-0.76
2023-01-30T03:02:33.676Z,-0.76
2023-01-30T03:05:19.370Z,-0.75
2023-01-30T03:08:23.011Z,-0.73
2023-01-30T03:11:09.898Z,-0.72
2023-01-30T03:14:09.476Z,-0.72
2023-01-30T03:16:39.963Z,-0.71
2023-01-30T03:19:13.352Z,-0.71
2023-01-30T03:21:44.804Z,-0.70
2023-01-30T03:24:14.504Z,-0.69
2023-01-30T03:26:49.078Z,-0.68
2023-01-30T03:29:17.443Z,-0.66
2023-01-30T03:31:46.075Z,-0.64
2023-01-30T03:34:14.516Z,-0.62
2023-01-30T03:36:42.948Z,-0.59
2023-01-30T03:39:11.312Z,-0.58
2023-01-30T03:41:39.737Z,-0.55
2023-01-30T03:44:08.521Z,-0.53
2023-01-30T03:46:36.967Z,-0.51
2023-01-30T03:49:05.458Z,-0.49
2023-01-30T03:51:33.840Z,-0.47
2023-01-30T03:54:02.231Z,-0.45
2023-01-30T03:56:31.071Z,-0.45
2023-01-30T03:58:59.417Z,-0.45
2023-01-30T04:01:27.813Z,-0.44
2023-01-30T04:03:56.287Z,-0.46
2023-01-30T04:06:24.669Z,-0.45
2023-01-30T04:08:55.835Z,-0.44
2023-01-30T04:11:24.226Z,-0.42
2023-01-30T04:13:52.581Z,-0.42
2023-01-30T04:16:24.574Z,-0.41
2023-01-30T04:18:53.395Z,-0.38
2023-01-30T04:21:22.106Z,-0.38
2023-01-30T04:23:50.501Z,-0.37
2023-01-30T04:26:18.851Z,-0.36
2023-01-30T04:28:47.207Z,-0.35
2023-01-30T04:31:15.519Z,-0.35
2023-01-30T04:33:43.948Z,-0.34
2023-01-30T04:36:12.737Z,-0.32
2023-01-30T04:38:41.450Z,-0.32
2023-01-30T04:41:09.812Z,-0.31
2023-01-30T04:43:38.215Z,-0.29
2023-01-30T04:46:06.597Z,-0.27
2023-01-30T04:48:34.856Z,-0.25
2023-01-30T04:51:03.318Z,-0.24
2023-01-30T04:53:32.004Z,-0.22
2023-01-30T04:56:00.363Z,-0.20
2023-01-30T04:58:28.748Z,-0.20
2023-01-30T05:01:12.662Z,-0.18
2023-01-30T05:03:41.116Z,-0.17
2023-01-30T05:06:09.573Z,-0.16
2023-01-30T05:08:37.898Z,-0.14
2023-01-30T05:11:06.296Z,-0.13
2023-01-30T05:13:34.637Z,-0.10
2023-01-30T05:16:03.305Z,-0.08
2023-01-30T05:18:31.689Z,-0.06
2023-01-30T05:21:16.385Z,-0.05
2023-01-30T05:23:45.408Z,-0.04
2023-01-30T05:26:16.000Z,-0.04
2023-01-30T05:28:44.599Z,-0.04
2023-01-30T05:31:14.547Z,-0.04
2023-01-30T05:33:43.262Z,-0.04
2023-01-30T05:36:16.863Z,-0.05
2023-01-30T05:38:46.382Z,-0.07
2023-01-30T05:41:16.656Z,-0.10
2023-01-30T05:43:50.349Z,-0.11
2023-01-30T05:46:19.263Z,-0.12
2023-01-30T05:48:48.102Z,-0.13
2023-01-30T05:51:19.752Z,-0.13
2023-01-30T05:53:48.677Z,-0.14
2023-01-30T05:56:18.530Z,-0.14
2023-01-30T05:58:52.733Z,-0.14
2023-01-30T06:01:22.303Z,-0.15
2023-01-30T06:03:50.836Z,-0.16
2023-01-30T06:06:19.857Z,-0.16
2023-01-30T06:08:53.912Z,-0.14
2023-01-30T06:11:23.561Z,-0.11
2023-01-30T06:13:52.109Z,-0.09
2023-01-30T06:16:20.892Z,-0.07
2023-01-30T06:18:49.517Z,-0.04
2023-01-30T06:21:17.841Z,-0.00
2023-01-30T06:23:46.476Z,0.03
2023-01-30T06:26:15.031Z,0.07
2023-01-30T06:28:43.571Z,0.09
2023-01-30T06:31:12.013Z,0.11
2023-01-30T06:33:40.492Z,0.15
2023-01-30T06:36:09.484Z,0.17
2023-01-30T06:38:37.852Z,0.20
2023-01-30T06:41:06.749Z,0.23
2023-01-30T06:43:35.056Z,0.26
2023-01-30T06:46:03.543Z,0.29
2023-01-30T06:48:31.986Z,0.32
2023-01-30T06:51:03.209Z,0.34
2023-01-30T06:53:31.834Z,0.36
2023-01-30T06:56:01.853Z,0.37
2023-01-30T06:58:30.302Z,0.39
2023-01-30T07:00:58.667Z,0.39
2023-01-30T07:03:26.963Z,0.40
2023-01-30T07:05:56.545Z,0.40
2023-01-30T07:08:25.340Z,0.42
2023-01-30T07:10:54.058Z,0.43
2023-01-30T07:13:23.547Z,0.43
2023-01-30T07:15:51.874Z,0.43
2023-01-30T07:18:20.200Z,0.44
2023-01-30T07:20:49.744Z,0.44
2023-01-30T07:23:18.279Z,0.45
2023-01-30T07:25:46.729Z,0.46
2023-01-30T07:28:15.108Z,0.48
2023-01-30T07:30:43.476Z,0.50
2023-01-30T07:33:12.020Z,0.52
2023-01-30T07:35:40.342Z,0.54
2023-01-30T07:38:08.838Z,0.58
2023-01-30T07:40:37.164Z,0.62
2023-01-30T07:43:10.081Z,0.67
2023-01-30T07:45:42.160Z,0.74
2023-01-30T07:48:13.596Z,0.79
2023-01-30T07:50:42.768Z,0.84
2023-01-30T07:53:14.626Z,0.87
2023-01-30T07:55:43.356Z,0.90
2023-01-30T07:58:16.577Z,0.91
2023-01-30T08:00:45.264Z,0.93
2023-01-30T08:03:16.118Z,0.94
2023-01-30T08:05:47.587Z,0.94
2023-01-30T08:08:16.499Z,0.94
2023-01-30T08:10:44.998Z,0.92
2023-01-30T08:13:13.512Z,0.91
2023-01-30T08:15:41.913Z,0.92
2023-01-30T08:18:10.255Z,0.93
2023-01-30T08:20:38.927Z,0.95
2023-01-30T08:23:07.330Z,0.97
2023-01-30T08:25:36.676Z,1.01
2023-01-30T08:28:05.248Z,1.05
2023-01-30T08:30:33.782Z,1.09
2023-01-30T08:33:02.668Z,1.14
2023-01-30T08:35:31.068Z,1.19
2023-01-30T08:37:59.635Z,1.26
2023-01-30T08:40:28.017Z,1.34
2023-01-30T08:42:56.517Z,1.40
2023-01-30T08:45:24.953Z,1.43
2023-01-30T08:47:54.384Z,1.48
2023-01-30T08:50:23.573Z,1.57
2023-01-30T08:52:52.021Z,1.68
2023-01-30T08:55:21.718Z,1.77
2023-01-30T08:57:51.383Z,1.84
2023-01-30T09:00:20.753Z,1.90
2023-01-30T09:02:53.282Z,1.94
2023-01-30T09:05:21.661Z,1.98
2023-01-30T09:07:50.732Z,2.02
2023-01-30T09:10:21.082Z,2.05
2023-01-30T09:12:52.766Z,2.07
2023-01-30T09:15:22.089Z,2.10
2023-01-30T09:17:52.875Z,2.15
2023-01-30T09:20:22.803Z,2.20
2023-01-30T09:22:52.331Z,2.24
2023-01-30T09:25:22.536Z,2.27
2023-01-30T09:27:54.221Z,2.31
2023-01-30T09:30:23.053Z,2.35
2023-01-30T09:32:51.484Z,2.39
2023-01-30T09:35:21.309Z,2.42
2023-01-30T09:37:53.042Z,2.44
2023-01-30T09:40:27.838Z,2.47
2023-01-30T09:43:15.477Z,2.53
2023-01-30T09:46:16.896Z,2.60
2023-01-30T09:49:22.229Z,2.67
2023-01-30T09:52:46.157Z,2.68
2023-01-30T09:55:25.658Z,2.68
2023-01-30T09:57:54.112Z,2.63
2023-01-30T10:00:44.464Z,2.59
2023-01-30T10:03:20.531Z,2.53
2023-01-30T10:06:05.367Z,2.46
2023-01-30T10:09:08.355Z,2.40
2023-01-30T10:12:07.423Z,2.34
2023-01-30T10:15:14.728Z,2.28
2023-01-30T10:18:27.838Z,2.21
2023-01-30T10:21:16.807Z,2.13
2023-01-30T10:24:36.223Z,2.03
2023-01-30T10:27:12.912Z,1.90
2023-01-30T10:29:46.677Z,1.80
2023-01-30T10:32:39.337Z,1.70
2023-01-30T10:35:20.647Z,1.61
2023-01-30T10:38:03.713Z,1.54
2023-01-30T10:45:13.897Z,1.50
2023-01-30T10:47:56.293Z,1.48
2023-01-30T10:51:16.352Z,1.46
2023-01-30T10:54:20.713Z,1.41
2023-01-30T10:57:14.314Z,1.37
2023-01-30T11:00:21.569Z,1.35
2023-01-30T11:03:26.229Z,1.36
2023-01-30T11:06:02.075Z,1.38
2023-01-30T11:08:36.642Z,1.40
2023-01-30T11:11:55.633Z,1.44
2023-01-30T11:14:27.029Z,1.51
2023-01-30T11:16:58.380Z,1.56
2023-01-30T11:19:34.748Z,1.61
2023-01-30T11:22:05.709Z,1.66
2023-01-30T11:24:45.138Z,1.73
2023-01-30T11:27:25.449Z,1.81
2023-01-30T11:30:22.456Z,1.87
2023-01-30T11:33:24.662Z,1.91
2023-01-30T11:36:43.447Z,1.93
2023-01-30T11:39:19.147Z,2.02
2023-01-30T11:42:04.969Z,2.11
2023-01-30T11:44:43.005Z,2.18
2023-01-30T11:47:29.430Z,2.25
2023-01-30T11:50:28.635Z,2.34
2023-01-30T11:53:19.096Z,2.45
2023-01-30T11:56:13.011Z,2.54
2023-01-30T11:58:59.112Z,2.63
2023-01-30T12:01:39.320Z,2.69
2023-01-30T12:04:12.565Z,2.70
2023-01-30T12:06:43.716Z,2.70
2023-01-30T12:09:40.778Z,2.71
2023-01-30T12:12:51.999Z,2.73
2023-01-30T12:15:26.388Z,2.75
2023-01-30T12:18:45.889Z,2.77
2023-01-30T12:22:14.265Z,2.82
2023-01-30T12:25:13.651Z,2.86
2023-01-30T12:28:35.699Z,2.89
2023-01-30T12:31:48.908Z,2.91
2023-01-30T12:34:27.686Z,2.93
2023-01-30T12:37:30.936Z,2.95
2023-01-30T12:40:40.730Z,3.00
2023-01-30T12:43:52.083Z,3.04
2023-01-30T12:46:53.869Z,3.08
2023-01-30T12:50:25.454Z,3.11
2023-01-30T12:54:20.434Z,3.17
2023-01-30T12:58:06.511Z,3.23
2023-01-30T13:01:42.954Z,3.32
2023-01-30T13:05:12.126Z,3.39
2023-01-30T13:08:28.869Z,3.43
2023-01-30T13:11:36.395Z,3.47
2023-01-30T13:14:26.861Z,3.51
2023-01-30T13:17:28.622Z,3.55
2023-01-30T13:20:42.818Z,3.57
2023-01-30T13:24:09.761Z,3.61
2023-01-30T13:26:42.798Z,3.65
2023-01-30T13:29:31.544Z,3.69
2023-01-30T13:32:47.244Z,3.74
2023-01-30T13:35:42.033Z,3.78
2023-01-30T13:38:44.878Z,3.80
2023-01-30T13:41:48.007Z,3.82
2023-01-30T13:44:28.273Z,3.83
2023-01-30T13:47:15.685Z,3.85
2023-01-30T13:50:41.500Z,3.93
2023-01-30T13:54:12.743Z,4.09
2023-01-30T13:56:52.302Z,4.26
2023-01-30T14:00:34.684Z,4.38
2023-01-30T14:03:32.633Z,4.50
2023-01-30T14:09:30.147Z,4.75
2023-01-30T14:12:04.098Z,4.82
2023-01-30T14:14:40.650Z,4.88
2023-01-30T14:17:19.313Z,4.89
2023-01-30T14:24:17.857Z,5.09
2023-01-30T14:27:32.006Z,5.49
2023-01-30T14:31:07.466Z,5.91
2023-01-30T14:34:00.911Z,6.35
2023-01-30T14:36:37.918Z,6.61
2023-01-30T14:40:00.813Z,6.71
2023-01-30T14:42:32.303Z,6.61
2023-01-30T14:45:17.390Z,6.38
2023-01-30T14:47:48.105Z,6.14
2023-01-30T14:50:53.003Z,5.97
2023-01-30T14:53:26.180Z,5.69
2023-01-30T14:56:04.694Z,5.44
2023-01-30T14:58:33.537Z,5.25
2023-01-30T15:01:02.415Z,5.09
2023-01-30T15:04:34.833Z,4.93
2023-01-30T15:07:48.547Z,4.76
2023-01-30T15:11:18.356Z,4.63
2023-01-30T15:15:03.151Z,4.52
2023-01-30T15:18:58.855Z,4.42
2023-01-30T15:25:16.134Z,4.27
2023-01-30T15:28:31.730Z,4.23
2023-01-30T15:31:28.988Z,4.19
2023-01-30T15:33:57.811Z,4.16
2023-01-30T15:36:46.396Z,4.14
2023-01-30T15:39:24.019Z,4.12
2023-01-30T15:42:05.948Z,4.10
2023-01-30T15:45:26.680Z,4.09
2023-01-30T15:48:28.720Z,4.06
2023-01-30T15:51:00.315Z,4.03
2023-01-30T15:53:40.181Z,4.01
2023-01-30T15:56:18.400Z,3.99
2023-01-30T15:58:47.283Z,3.98
2023-01-30T16:01:23.278Z,4.00
2023-01-30T16:03:53.323Z,4.01
2023-01-30T16:06:33.981Z,4.03
2023-01-30T16:09:19.643Z,4.06
2023-01-30T16:11:49.255Z,4.08
2023-01-30T16:14:21.768Z,4.09
2023-01-30T16:17:02.653Z,4.09
2023-01-30T16:19:35.890Z,4.11
2023-01-30T16:22:16.985Z,4.13
2023-01-30T16:24:50.681Z,4.16
2023-01-30T16:27:31.750Z,4.18
2023-01-30T16:30:07.915Z,4.21
2023-01-30T16:32:37.428Z,4.22
2023-01-30T16:35:27.389Z,4.23
2023-01-30T16:38:00.190Z,4.24
2023-01-30T16:40:42.516Z,4.25
2023-01-30T16:43:32.019Z,4.25
2023-01-30T16:46:47.400Z,4.24
2023-01-30T16:49:41.585Z,4.25
2023-01-30T16:52:43.781Z,4.24
2023-01-30T16:55:37.222Z,4.23
2023-01-30T16:58:07.681Z,4.23
2023-01-30T17:00:40.097Z,4.23
2023-01-30T17:03:26.060Z,4.22
2023-01-30T17:05:56.883Z,4.22
2023-01-30T17:08:49.371Z,4.21
2023-01-30T17:11:37.467Z,4.19
2023-01-30T17:14:24.458Z,4.19
2023-01-30T17:17:04.110Z,4.20
2023-01-30T17:19:32.510Z,4.21
2023-01-30T17:22:04.704Z,4.21
2023-01-30T17:24:35.554Z,4.23
2023-01-30T17:27:04.690Z,4.24
2023-01-30T17:29:42.423Z,4.25
2023-01-30T17:32:15.303Z,4.25
2023-01-30T17:34:43.998Z,4.25
2023-01-30T17:37:17.097Z,4.25
2023-01-30T17:39:45.961Z,4.24
2023-01-30T17:42:22.072Z,4.21
2023-01-30T17:44:50.694Z,4.14
2023-01-30T17:47:19.012Z,4.02
2023-01-30T17:49:47.658Z,3.88
2023-01-30T17:52:16.084Z,3.76
2023-01-30T17:54:44.424Z,3.66
2023-01-30T17:57:15.690Z,3.56
2023-01-30T17:59:44.199Z,3.49
2023-01-30T18:02:13.523Z,3.44
2023-01-30T18:04:41.913Z,3.37
2023-01-30T18:07:14.788Z,3.33
2023-01-30T18:09:43.224Z,3.30
2023-01-30T18:12:11.587Z,3.28
2023-01-30T18:14:40.002Z,3.28
2023-01-30T18:17:09.820Z,3.26
2023-01-30T18:19:39.787Z,3.23
2023-01-30T18:22:08.851Z,3.18
2023-01-30T18:24:37.840Z,3.14
2023-01-30T18:27:06.227Z,3.12
2023-01-30T18:29:34.610Z,3.09
2023-01-30T18:32:05.871Z,3.04
2023-01-30T18:34:34.284Z,2.98
2023-01-30T18:37:02.635Z,2.94
2023-01-30T18:39:32.105Z,2.91
2023-01-30T18:42:02.166Z,2.89
2023-01-30T18:44:32.542Z,2.86
2023-01-30T18:47:01.337Z,2.85
2023-01-30T18:49:30.397Z,2.84
2023-01-30T18:51:59.741Z,2.82
2023-01-30T18:54:28.181Z,2.81
2023-01-30T18:56:57.190Z,2.78
2023-01-30T18:59:26.445Z,2.76
2023-01-30T19:01:54.847Z,2.73
2023-01-30T19:04:23.228Z,2.71
2023-01-30T19:06:51.744Z,2.70
2023-01-30T19:09:21.461Z,2.68
2023-01-30T19:12:08.439Z,2.68
2023-01-30T19:14:37.319Z,2.67
2023-01-30T19:17:05.801Z,2.67
2023-01-30T19:19:37.126Z,2.66
2023-01-30T19:22:06.125Z,2.66
2023-01-30T19:24:34.572Z,2.66
2023-01-30T19:27:05.308Z,2.67
2023-01-30T19:29:33.667Z,2.68
2023-01-30T19:32:02.189Z,2.69
2023-01-30T19:34:30.891Z,2.72
2023-01-30T19:37:00.426Z,2.74
2023-01-30T19:39:30.156Z,2.77
2023-01-30T19:41:58.952Z,2.80
2023-01-30T19:44:27.289Z,2.82
2023-01-30T19:46:56.442Z,2.84
2023-01-30T19:49:25.604Z,2.85
2023-01-30T19:51:56.829Z,2.86
2023-01-30T19:54:25.829Z,2.88
2023-01-30T19:56:54.257Z,2.89
2023-01-30T19:59:23.075Z,2.91
2023-01-30T20:01:51.631Z,2.93
2023-01-30T20:04:19.951Z,2.94
2023-01-30T20:06:49.814Z,2.96
2023-01-30T20:09:19.228Z,2.97
2023-01-30T20:11:47.701Z,2.99
2023-01-30T20:14:17.065Z,2.98
2023-01-30T20:16:45.575Z,2.97
2023-01-30T20:19:16.970Z,2.94
2023-01-30T20:21:45.573Z,2.91
2023-01-30T20:24:15.595Z,2.88
2023-01-30T20:26:47.858Z,2.83
2023-01-30T20:29:17.959Z,2.79
2023-01-30T20:31:47.081Z,2.75
2023-01-30T20:34:15.574Z,2.72
2023-01-30T20:36:43.954Z,2.69
2023-01-30T20:39:14.179Z,2.67
2023-01-30T20:41:43.499Z,2.63
2023-01-30T20:44:13.808Z,2.56
2023-01-30T20:46:45.936Z,2.50
2023-01-30T20:49:21.152Z,2.43
2023-01-30T20:51:52.577Z,2.38
2023-01-30T20:54:23.350Z,2.35
2023-01-30T20:56:54.033Z,2.32
2023-01-30T20:59:24.672Z,2.31
2023-01-30T21:01:53.825Z,2.32
2023-01-30T21:04:24.556Z,2.33
2023-01-30T21:06:53.281Z,2.32
2023-01-30T21:09:23.594Z,2.32
2023-01-30T21:11:53.306Z,2.33
2023-01-30T21:14:22.144Z,2.35
2023-01-30T21:16:50.754Z,2.38
2023-01-30T21:19:19.355Z,2.41
2023-01-30T21:21:51.569Z,2.45
2023-01-30T21:24:27.194Z,2.48
2023-01-30T21:26:57.098Z,2.51
2023-01-30T21:29:28.465Z,2.54
2023-01-30T21:31:58.855Z,2.56
2023-01-30T21:34:27.559Z,2.59
2023-01-30T21:37:14.468Z,2.62
2023-01-30T21:40:01.712Z,2.67
2023-01-30T21:42:49.213Z,2.71
2023-01-30T21:45:20.816Z,2.74
2023-01-30T21:47:54.197Z,2.75
2023-01-30T21:50:22.667Z,2.76
2023-01-30T21:52:51.133Z,2.76
2023-01-30T21:55:20.524Z,2.77
2023-01-30T21:57:49.360Z,2.78
2023-01-30T22:00:18.456Z,2.80
2023-01-30T22:02:49.819Z,2.83
2023-01-30T22:05:18.805Z,2.84
2023-01-30T22:07:47.401Z,2.85
2023-01-30T22:10:16.438Z,2.86
2023-01-30T22:12:44.968Z,2.88
2023-01-30T22:15:13.486Z,2.90
2023-01-30T22:17:42.031Z,2.93
2023-01-30T22:20:12.212Z,2.95
2023-01-30T22:22:40.751Z,2.96
2023-01-30T22:25:10.519Z,2.98
2023-01-30T22:27:41.302Z,2.98
2023-01-30T22:30:12.891Z,2.98
2023-01-30T22:32:41.377Z,2.98
2023-01-30T22:35:10.112Z,2.97
2023-01-30T22:37:38.688Z,2.96
2023-01-30T22:40:09.100Z,2.96
2023-01-30T22:42:38.388Z,2.95
2023-01-30T22:45:09.688Z,2.93
2023-01-30T22:47:40.139Z,2.90
2023-01-30T22:50:11.484Z,2.87
2023-01-30T22:52:42.156Z,2.82
2023-01-30T22:55:11.679Z,2.79
2023-01-30T22:57:41.480Z,2.79
2023-01-30T23:00:12.870Z,2.80
2023-01-30T23:02:42.625Z,2.80
2023-01-30T23:05:12.968Z,2.82
2023-01-30T23:07:43.072Z,2.84
2023-01-30T23:10:13.678Z,2.85
2023-01-30T23:13:02.293Z,2.87
2023-01-30T23:15:50.840Z,2.88
2023-01-30T23:18:39.130Z,2.90
2023-01-30T23:21:12.243Z,2.92
2023-01-30T23:23:43.628Z,2.94
2023-01-30T23:26:14.020Z,2.95
2023-01-30T23:28:45.143Z,2.97
2023-01-30T23:31:26.867Z,2.99
2023-01-30T23:33:59.263Z,3.03
2023-01-30T23:36:29.419Z,3.05
2023-01-30T23:39:00.672Z,3.08
2023-01-30T23:41:32.499Z,3.11
2023-01-30T23:44:22.790Z,3.13
2023-01-30T23:46:53.065Z,3.15
2023-01-30T23:49:23.018Z,3.18
2023-01-30T23:51:53.026Z,3.20
2023-01-30T23:54:22.030Z,3.22
2023-01-30T23:56:52.534Z,3.25
2023-01-30T23:59:21.597Z,3.27
